sensor_id;sensor_type;location;lat;lon;timestamp;P1;durP1;ratioP1;P2;durP2;ratioP2
43756;SDS011;73222;41.866;12.462;2024-01-25T00:00:50;36.80;;;24.77;;
43756;SDS011;73222;41.866;12.462;2024-01-25T00:03:16;37.55;;;25.23;;
43756;SDS011;73222;41.866;12.462;2024-01-25T00:05:41;44.25;;;26.55;;
43756;SDS011;73222;41.866;12.462;2024-01-25T00:08:07;45.13;;;26.15;;
43756;SDS011;73222;41.866;12.462;2024-01-25T00:10:32;39.75;;;24.80;;
43756;SDS011;73222;41.866;12.462;2024-01-25T00:12:57;37.05;;;24.15;;
43756;SDS011;73222;41.866;12.462;2024-01-25T00:15:23;41.80;;;24.48;;
43756;SDS011;73222;41.866;12.462;2024-01-25T00:17:48;35.35;;;25.40;;
43756;SDS011;73222;41.866;12.462;2024-01-25T00:20:13;36.75;;;25.13;;
43756;SDS011;73222;41.866;12.462;2024-01-25T00:22:39;43.45;;;23.70;;
43756;SDS011;73222;41.866;12.462;2024-01-25T00:25:04;38.40;;;23.50;;
43756;SDS011;73222;41.866;12.462;2024-01-25T00:27:31;35.83;;;23.10;;
43756;SDS011;73222;41.866;12.462;2024-01-25T00:29:56;45.83;;;24.63;;
43756;SDS011;73222;41.866;12.462;2024-01-25T00:32:22;34.53;;;22.13;;
43756;SDS011;73222;41.866;12.462;2024-01-25T00:34:47;38.05;;;23.30;;
43756;SDS011;73222;41.866;12.462;2024-01-25T00:37:13;32.50;;;21.95;;
43756;SDS011;73222;41.866;12.462;2024-01-25T00:39:38;33.05;;;22.38;;
43756;SDS011;73222;41.866;12.462;2024-01-25T00:42:04;33.35;;;22.15;;
43756;SDS011;73222;41.866;12.462;2024-01-25T00:44:31;34.42;;;22.15;;
43756;SDS011;73222;41.866;12.462;2024-01-25T00:46:57;34.85;;;22.88;;
43756;SDS011;73222;41.866;12.462;2024-01-25T00:49:23;32.20;;;22.63;;
43756;SDS011;73222;41.866;12.462;2024-01-25T00:51:49;39.17;;;22.27;;
43756;SDS011;73222;41.866;12.462;2024-01-25T00:54:20;36.72;;;21.92;;
43756;SDS011;73222;41.866;12.462;2024-01-25T00:56:46;38.00;;;23.25;;
43756;SDS011;73222;41.866;12.462;2024-01-25T00:59:13;33.17;;;23.27;;
43756;SDS011;73222;41.866;12.462;2024-01-25T01:01:38;31.92;;;22.38;;
43756;SDS011;73222;41.866;12.462;2024-01-25T01:04:07;43.67;;;21.80;;
43756;SDS011;73222;41.866;12.462;2024-01-25T01:06:33;42.38;;;21.48;;
43756;SDS011;73222;41.866;12.462;2024-01-25T01:08:58;36.20;;;22.00;;
43756;SDS011;73222;41.866;12.462;2024-01-25T01:11:24;32.60;;;21.20;;
43756;SDS011;73222;41.866;12.462;2024-01-25T01:13:49;37.50;;;22.27;;
43756;SDS011;73222;41.866;12.462;2024-01-25T01:16:15;33.90;;;21.08;;
43756;SDS011;73222;41.866;12.462;2024-01-25T01:18:40;34.42;;;21.75;;
43756;SDS011;73222;41.866;12.462;2024-01-25T01:21:06;34.13;;;21.33;;
43756;SDS011;73222;41.866;12.462;2024-01-25T01:23:31;32.92;;;21.30;;
43756;SDS011;73222;41.866;12.462;2024-01-25T01:25:56;30.30;;;20.58;;
43756;SDS011;73222;41.866;12.462;2024-01-25T01:28:22;29.58;;;21.02;;
43756;SDS011;73222;41.866;12.462;2024-01-25T01:30:47;34.10;;;21.77;;
43756;SDS011;73222;41.866;12.462;2024-01-25T01:33:12;32.75;;;21.13;;
43756;SDS011;73222;41.866;12.462;2024-01-25T01:35:38;39.35;;;22.02;;
43756;SDS011;73222;41.866;12.462;2024-01-25T01:38:03;36.85;;;22.20;;
43756;SDS011;73222;41.866;12.462;2024-01-25T01:40:29;37.42;;;21.45;;
43756;SDS011;73222;41.866;12.462;2024-01-25T01:43:00;38.67;;;21.50;;
43756;SDS011;73222;41.866;12.462;2024-01-25T01:45:26;32.33;;;22.27;;
43756;SDS011;73222;41.866;12.462;2024-01-25T01:47:52;31.50;;;19.42;;
43756;SDS011;73222;41.866;12.462;2024-01-25T01:50:18;28.10;;;20.30;;
43756;SDS011;73222;41.866;12.462;2024-01-25T01:52:43;32.97;;;20.33;;
43756;SDS011;73222;41.866;12.462;2024-01-25T01:55:11;33.45;;;21.13;;
43756;SDS011;73222;41.866;12.462;2024-01-25T01:57:37;30.38;;;19.95;;
43756;SDS011;73222;41.866;12.462;2024-01-25T02:00:03;30.90;;;20.02;;
43756;SDS011;73222;41.866;12.462;2024-01-25T02:02:33;30.77;;;21.63;;
43756;SDS011;73222;41.866;12.462;2024-01-25T02:04:59;33.33;;;22.15;;
43756;SDS011;73222;41.866;12.462;2024-01-25T02:07:24;32.55;;;21.73;;
43756;SDS011;73222;41.866;12.462;2024-01-25T02:09:50;28.75;;;20.30;;
43756;SDS011;73222;41.866;12.462;2024-01-25T02:12:15;34.92;;;20.58;;
43756;SDS011;73222;41.866;12.462;2024-01-25T02:14:43;33.45;;;21.35;;
43756;SDS011;73222;41.866;12.462;2024-01-25T02:17:09;34.45;;;20.90;;
43756;SDS011;73222;41.866;12.462;2024-01-25T02:19:35;29.73;;;19.95;;
43756;SDS011;73222;41.866;12.462;2024-01-25T02:22:00;30.08;;;19.52;;
43756;SDS011;73222;41.866;12.462;2024-01-25T02:24:26;30.42;;;20.30;;
43756;SDS011;73222;41.866;12.462;2024-01-25T02:26:51;33.40;;;17.92;;
43756;SDS011;73222;41.866;12.462;2024-01-25T02:29:17;25.63;;;17.40;;
43756;SDS011;73222;41.866;12.462;2024-01-25T02:31:42;31.38;;;18.45;;
43756;SDS011;73222;41.866;12.462;2024-01-25T02:34:08;28.77;;;18.38;;
43756;SDS011;73222;41.866;12.462;2024-01-25T02:36:33;30.70;;;18.85;;
43756;SDS011;73222;41.866;12.462;2024-01-25T02:38:58;30.17;;;16.98;;
43756;SDS011;73222;41.866;12.462;2024-01-25T02:41:24;26.58;;;17.85;;
43756;SDS011;73222;41.866;12.462;2024-01-25T02:43:49;26.30;;;17.45;;
43756;SDS011;73222;41.866;12.462;2024-01-25T02:46:14;29.95;;;19.35;;
43756;SDS011;73222;41.866;12.462;2024-01-25T02:48:40;24.02;;;17.23;;
43756;SDS011;73222;41.866;12.462;2024-01-25T02:51:05;24.05;;;16.88;;
43756;SDS011;73222;41.866;12.462;2024-01-25T02:53:30;27.55;;;17.00;;
43756;SDS011;73222;41.866;12.462;2024-01-25T02:55:56;26.27;;;16.63;;
43756;SDS011;73222;41.866;12.462;2024-01-25T02:58:21;22.95;;;16.85;;
43756;SDS011;73222;41.866;12.462;2024-01-25T03:00:47;28.52;;;17.63;;
43756;SDS011;73222;41.866;12.462;2024-01-25T03:03:12;26.20;;;16.90;;
43756;SDS011;73222;41.866;12.462;2024-01-25T03:05:38;24.92;;;16.50;;
43756;SDS011;73222;41.866;12.462;2024-01-25T03:08:03;23.00;;;16.60;;
43756;SDS011;73222;41.866;12.462;2024-01-25T03:10:29;24.60;;;15.95;;
43756;SDS011;73222;41.866;12.462;2024-01-25T03:12:54;26.13;;;17.13;;
43756;SDS011;73222;41.866;12.462;2024-01-25T03:15:20;26.17;;;16.55;;
43756;SDS011;73222;41.866;12.462;2024-01-25T03:17:46;28.30;;;16.05;;
43756;SDS011;73222;41.866;12.462;2024-01-25T03:20:11;24.75;;;16.90;;
43756;SDS011;73222;41.866;12.462;2024-01-25T03:22:36;23.70;;;15.70;;
43756;SDS011;73222;41.866;12.462;2024-01-25T03:25:02;22.90;;;14.93;;
43756;SDS011;73222;41.866;12.462;2024-01-25T03:27:27;21.50;;;15.35;;
43756;SDS011;73222;41.866;12.462;2024-01-25T03:29:52;24.38;;;14.63;;
43756;SDS011;73222;41.866;12.462;2024-01-25T03:32:18;23.27;;;15.07;;
43756;SDS011;73222;41.866;12.462;2024-01-25T03:34:43;22.30;;;15.00;;
43756;SDS011;73222;41.866;12.462;2024-01-25T03:37:09;20.52;;;14.20;;
43756;SDS011;73222;41.866;12.462;2024-01-25T03:39:34;20.42;;;13.50;;
43756;SDS011;73222;41.866;12.462;2024-01-25T03:42:00;24.65;;;14.82;;
43756;SDS011;73222;41.866;12.462;2024-01-25T03:44:25;22.48;;;14.50;;
43756;SDS011;73222;41.866;12.462;2024-01-25T03:46:50;23.27;;;14.10;;
43756;SDS011;73222;41.866;12.462;2024-01-25T03:49:16;19.70;;;13.40;;
43756;SDS011;73222;41.866;12.462;2024-01-25T03:51:41;19.30;;;13.45;;
43756;SDS011;73222;41.866;12.462;2024-01-25T03:54:07;21.85;;;12.30;;
43756;SDS011;73222;41.866;12.462;2024-01-25T03:56:32;20.15;;;13.80;;
43756;SDS011;73222;41.866;12.462;2024-01-25T03:58:58;24.40;;;14.00;;
43756;SDS011;73222;41.866;12.462;2024-01-25T04:01:23;17.92;;;12.63;;
43756;SDS011;73222;41.866;12.462;2024-01-25T04:03:48;18.83;;;12.55;;
43756;SDS011;73222;41.866;12.462;2024-01-25T04:06:14;20.65;;;13.20;;
43756;SDS011;73222;41.866;12.462;2024-01-25T04:08:39;20.63;;;12.63;;
43756;SDS011;73222;41.866;12.462;2024-01-25T04:11:04;19.50;;;13.15;;
43756;SDS011;73222;41.866;12.462;2024-01-25T04:13:30;17.77;;;11.25;;
43756;SDS011;73222;41.866;12.462;2024-01-25T04:15:55;19.27;;;12.23;;
43756;SDS011;73222;41.866;12.462;2024-01-25T04:18:21;19.13;;;12.43;;
43756;SDS011;73222;41.866;12.462;2024-01-25T04:20:46;15.32;;;11.57;;
43756;SDS011;73222;41.866;12.462;2024-01-25T04:23:12;17.77;;;11.48;;
43756;SDS011;73222;41.866;12.462;2024-01-25T04:25:37;16.98;;;11.52;;
43756;SDS011;73222;41.866;12.462;2024-01-25T04:28:02;23.77;;;11.95;;
43756;SDS011;73222;41.866;12.462;2024-01-25T04:30:28;19.65;;;13.45;;
43756;SDS011;73222;41.866;12.462;2024-01-25T04:32:54;24.00;;;12.75;;
43756;SDS011;73222;41.866;12.462;2024-01-25T04:35:19;19.85;;;11.18;;
43756;SDS011;73222;41.866;12.462;2024-01-25T04:37:45;19.75;;;11.63;;
43756;SDS011;73222;41.866;12.462;2024-01-25T04:40:10;19.60;;;13.10;;
43756;SDS011;73222;41.866;12.462;2024-01-25T04:42:36;20.50;;;12.27;;
43756;SDS011;73222;41.866;12.462;2024-01-25T04:45:02;17.98;;;11.93;;
43756;SDS011;73222;41.866;12.462;2024-01-25T04:47:27;18.40;;;11.48;;
43756;SDS011;73222;41.866;12.462;2024-01-25T04:49:53;19.38;;;12.25;;
43756;SDS011;73222;41.866;12.462;2024-01-25T04:52:18;18.60;;;11.00;;
43756;SDS011;73222;41.866;12.462;2024-01-25T04:54:43;16.08;;;11.48;;
43756;SDS011;73222;41.866;12.462;2024-01-25T04:57:09;19.52;;;12.68;;
43756;SDS011;73222;41.866;12.462;2024-01-25T04:59:34;18.80;;;10.98;;
43756;SDS011;73222;41.866;12.462;2024-01-25T05:02:00;16.85;;;11.40;;
43756;SDS011;73222;41.866;12.462;2024-01-25T05:04:25;16.27;;;11.75;;
43756;SDS011;73222;41.866;12.462;2024-01-25T05:06:53;18.80;;;11.55;;
43756;SDS011;73222;41.866;12.462;2024-01-25T05:09:18;17.77;;;11.75;;
43756;SDS011;73222;41.866;12.462;2024-01-25T05:11:43;17.50;;;11.30;;
43756;SDS011;73222;41.866;12.462;2024-01-25T05:14:09;17.13;;;11.75;;
43756;SDS011;73222;41.866;12.462;2024-01-25T05:16:34;17.02;;;11.88;;
43756;SDS011;73222;41.866;12.462;2024-01-25T05:19:02;18.38;;;11.77;;
43756;SDS011;73222;41.866;12.462;2024-01-25T05:21:28;18.33;;;10.90;;
43756;SDS011;73222;41.866;12.462;2024-01-25T05:23:53;22.15;;;11.80;;
43756;SDS011;73222;41.866;12.462;2024-01-25T05:26:18;21.08;;;10.80;;
43756;SDS011;73222;41.866;12.462;2024-01-25T05:28:44;17.48;;;11.88;;
43756;SDS011;73222;41.866;12.462;2024-01-25T05:31:09;16.70;;;10.82;;
43756;SDS011;73222;41.866;12.462;2024-01-25T05:33:40;20.67;;;10.73;;
43756;SDS011;73222;41.866;12.462;2024-01-25T05:36:06;18.15;;;10.45;;
43756;SDS011;73222;41.866;12.462;2024-01-25T05:38:32;18.65;;;11.80;;
43756;SDS011;73222;41.866;12.462;2024-01-25T05:40:58;19.00;;;12.75;;
43756;SDS011;73222;41.866;12.462;2024-01-25T05:43:24;19.17;;;10.95;;
43756;SDS011;73222;41.866;12.462;2024-01-25T05:45:50;19.45;;;12.25;;
43756;SDS011;73222;41.866;12.462;2024-01-25T05:48:16;21.52;;;12.30;;
43756;SDS011;73222;41.866;12.462;2024-01-25T05:50:41;20.10;;;10.90;;
43756;SDS011;73222;41.866;12.462;2024-01-25T05:53:06;19.15;;;11.43;;
43756;SDS011;73222;41.866;12.462;2024-01-25T05:55:32;17.52;;;11.30;;
43756;SDS011;73222;41.866;12.462;2024-01-25T05:57:57;19.48;;;12.02;;
43756;SDS011;73222;41.866;12.462;2024-01-25T06:00:22;21.33;;;12.70;;
43756;SDS011;73222;41.866;12.462;2024-01-25T06:02:48;21.38;;;12.00;;
43756;SDS011;73222;41.866;12.462;2024-01-25T06:05:13;16.23;;;11.00;;
43756;SDS011;73222;41.866;12.462;2024-01-25T06:07:39;20.02;;;12.63;;
43756;SDS011;73222;41.866;12.462;2024-01-25T06:10:05;19.85;;;11.93;;
43756;SDS011;73222;41.866;12.462;2024-01-25T06:12:31;22.48;;;12.65;;
43756;SDS011;73222;41.866;12.462;2024-01-25T06:14:56;20.55;;;11.27;;
43756;SDS011;73222;41.866;12.462;2024-01-25T06:17:22;19.92;;;12.13;;
43756;SDS011;73222;41.866;12.462;2024-01-25T06:19:47;22.35;;;12.25;;
43756;SDS011;73222;41.866;12.462;2024-01-25T06:22:13;24.40;;;12.52;;
43756;SDS011;73222;41.866;12.462;2024-01-25T06:24:38;21.65;;;12.40;;
43756;SDS011;73222;41.866;12.462;2024-01-25T06:27:04;18.38;;;11.90;;
43756;SDS011;73222;41.866;12.462;2024-01-25T06:29:29;21.42;;;12.55;;
43756;SDS011;73222;41.866;12.462;2024-01-25T06:31:54;20.42;;;12.43;;
43756;SDS011;73222;41.866;12.462;2024-01-25T06:34:20;20.02;;;12.20;;
43756;SDS011;73222;41.866;12.462;2024-01-25T06:36:45;29.05;;;13.02;;
43756;SDS011;73222;41.866;12.462;2024-01-25T06:39:10;19.60;;;11.93;;
43756;SDS011;73222;41.866;12.462;2024-01-25T06:41:36;20.52;;;11.52;;
43756;SDS011;73222;41.866;12.462;2024-01-25T06:44:01;21.17;;;12.80;;
43756;SDS011;73222;41.866;12.462;2024-01-25T06:46:27;19.08;;;11.23;;
43756;SDS011;73222;41.866;12.462;2024-01-25T06:48:53;21.17;;;10.93;;
43756;SDS011;73222;41.866;12.462;2024-01-25T06:51:18;21.05;;;12.20;;
43756;SDS011;73222;41.866;12.462;2024-01-25T06:53:44;26.83;;;10.77;;
43756;SDS011;73222;41.866;12.462;2024-01-25T06:56:10;21.60;;;12.30;;
43756;SDS011;73222;41.866;12.462;2024-01-25T06:58:35;21.75;;;11.63;;
43756;SDS011;73222;41.866;12.462;2024-01-25T07:01:01;23.08;;;11.48;;
43756;SDS011;73222;41.866;12.462;2024-01-25T07:03:26;17.08;;;11.77;;
43756;SDS011;73222;41.866;12.462;2024-01-25T07:05:53;17.92;;;11.20;;
43756;SDS011;73222;41.866;12.462;2024-01-25T07:08:18;19.20;;;11.35;;
43756;SDS011;73222;41.866;12.462;2024-01-25T07:10:44;18.92;;;11.63;;
43756;SDS011;73222;41.866;12.462;2024-01-25T07:13:10;20.67;;;11.25;;
43756;SDS011;73222;41.866;12.462;2024-01-25T07:15:35;20.52;;;11.57;;
43756;SDS011;73222;41.866;12.462;2024-01-25T07:18:01;18.20;;;12.07;;
43756;SDS011;73222;41.866;12.462;2024-01-25T07:20:26;20.20;;;11.73;;
43756;SDS011;73222;41.866;12.462;2024-01-25T07:22:52;24.90;;;12.32;;
43756;SDS011;73222;41.866;12.462;2024-01-25T07:25:18;20.23;;;11.77;;
43756;SDS011;73222;41.866;12.462;2024-01-25T07:27:44;21.42;;;11.80;;
43756;SDS011;73222;41.866;12.462;2024-01-25T07:30:12;24.13;;;11.82;;
43756;SDS011;73222;41.866;12.462;2024-01-25T07:32:38;18.77;;;10.32;;
43756;SDS011;73222;41.866;12.462;2024-01-25T07:35:10;19.67;;;11.43;;
43756;SDS011;73222;41.866;12.462;2024-01-25T07:37:36;19.38;;;12.05;;
43756;SDS011;73222;41.866;12.462;2024-01-25T07:40:01;19.65;;;11.48;;
43756;SDS011;73222;41.866;12.462;2024-01-25T07:42:29;22.10;;;11.60;;
43756;SDS011;73222;41.866;12.462;2024-01-25T07:44:55;21.10;;;12.40;;
43756;SDS011;73222;41.866;12.462;2024-01-25T07:47:20;23.63;;;11.85;;
43756;SDS011;73222;41.866;12.462;2024-01-25T07:49:46;21.30;;;12.43;;
43756;SDS011;73222;41.866;12.462;2024-01-25T07:52:11;24.95;;;12.48;;
43756;SDS011;73222;41.866;12.462;2024-01-25T07:54:36;17.63;;;11.60;;
43756;SDS011;73222;41.866;12.462;2024-01-25T07:57:02;19.83;;;12.10;;
43756;SDS011;73222;41.866;12.462;2024-01-25T07:59:27;21.77;;;11.95;;
43756;SDS011;73222;41.866;12.462;2024-01-25T08:01:53;24.40;;;11.88;;
43756;SDS011;73222;41.866;12.462;2024-01-25T08:04:18;24.80;;;12.13;;
43756;SDS011;73222;41.866;12.462;2024-01-25T08:06:43;23.30;;;12.63;;
43756;SDS011;73222;41.866;12.462;2024-01-25T08:09:09;21.73;;;12.23;;
43756;SDS011;73222;41.866;12.462;2024-01-25T08:11:34;21.08;;;12.20;;
43756;SDS011;73222;41.866;12.462;2024-01-25T08:14:00;17.70;;;11.70;;
43756;SDS011;73222;41.866;12.462;2024-01-25T08:16:26;21.88;;;12.02;;
43756;SDS011;73222;41.866;12.462;2024-01-25T08:18:52;26.05;;;11.98;;
43756;SDS011;73222;41.866;12.462;2024-01-25T08:21:17;23.60;;;12.85;;
43756;SDS011;73222;41.866;12.462;2024-01-25T08:23:42;19.33;;;12.32;;
43756;SDS011;73222;41.866;12.462;2024-01-25T08:26:08;35.80;;;13.32;;
43756;SDS011;73222;41.866;12.462;2024-01-25T08:28:34;22.40;;;11.85;;
43756;SDS011;73222;41.866;12.462;2024-01-25T08:31:01;16.95;;;10.90;;
43756;SDS011;73222;41.866;12.462;2024-01-25T08:33:27;18.75;;;10.68;;
43756;SDS011;73222;41.866;12.462;2024-01-25T08:35:52;19.73;;;12.35;;
43756;SDS011;73222;41.866;12.462;2024-01-25T08:38:18;18.05;;;11.60;;
43756;SDS011;73222;41.866;12.462;2024-01-25T08:40:43;18.20;;;11.63;;
43756;SDS011;73222;41.866;12.462;2024-01-25T08:43:08;21.42;;;12.90;;
43756;SDS011;73222;41.866;12.462;2024-01-25T08:45:34;18.92;;;11.77;;
43756;SDS011;73222;41.866;12.462;2024-01-25T08:47:59;22.73;;;12.65;;
43756;SDS011;73222;41.866;12.462;2024-01-25T08:50:25;18.33;;;11.55;;
43756;SDS011;73222;41.866;12.462;2024-01-25T08:52:50;21.00;;;12.95;;
43756;SDS011;73222;41.866;12.462;2024-01-25T08:55:16;24.52;;;12.52;;
43756;SDS011;73222;41.866;12.462;2024-01-25T08:57:41;23.55;;;12.38;;
43756;SDS011;73222;41.866;12.462;2024-01-25T09:00:07;23.67;;;12.45;;
43756;SDS011;73222;41.866;12.462;2024-01-25T09:02:36;20.90;;;12.60;;
43756;SDS011;73222;41.866;12.462;2024-01-25T09:05:02;20.65;;;13.05;;
43756;SDS011;73222;41.866;12.462;2024-01-25T09:07:28;17.65;;;12.40;;
43756;SDS011;73222;41.866;12.462;2024-01-25T09:09:54;23.65;;;13.18;;
43756;SDS011;73222;41.866;12.462;2024-01-25T09:12:20;21.42;;;13.57;;
43756;SDS011;73222;41.866;12.462;2024-01-25T09:14:46;21.33;;;13.98;;
43756;SDS011;73222;41.866;12.462;2024-01-25T09:17:11;20.05;;;13.68;;
43756;SDS011;73222;41.866;12.462;2024-01-25T09:19:36;21.20;;;13.10;;
43756;SDS011;73222;41.866;12.462;2024-01-25T09:22:02;22.30;;;12.77;;
43756;SDS011;73222;41.866;12.462;2024-01-25T09:24:29;20.25;;;13.57;;
43756;SDS011;73222;41.866;12.462;2024-01-25T09:26:56;21.23;;;12.85;;
43756;SDS011;73222;41.866;12.462;2024-01-25T09:29:23;23.73;;;13.65;;
43756;SDS011;73222;41.866;12.462;2024-01-25T09:31:49;22.35;;;13.10;;
43756;SDS011;73222;41.866;12.462;2024-01-25T09:34:15;20.80;;;13.13;;
43756;SDS011;73222;41.866;12.462;2024-01-25T09:36:40;18.95;;;12.23;;
43756;SDS011;73222;41.866;12.462;2024-01-25T09:39:05;19.75;;;12.88;;
43756;SDS011;73222;41.866;12.462;2024-01-25T09:41:31;22.35;;;12.02;;
43756;SDS011;73222;41.866;12.462;2024-01-25T09:43:56;22.35;;;11.50;;
43756;SDS011;73222;41.866;12.462;2024-01-25T09:46:22;20.27;;;13.05;;
43756;SDS011;73222;41.866;12.462;2024-01-25T09:48:51;19.60;;;13.02;;
43756;SDS011;73222;41.866;12.462;2024-01-25T09:51:17;19.17;;;13.15;;
43756;SDS011;73222;41.866;12.462;2024-01-25T09:53:42;22.20;;;13.23;;
43756;SDS011;73222;41.866;12.462;2024-01-25T09:56:11;24.05;;;13.95;;
43756;SDS011;73222;41.866;12.462;2024-01-25T09:58:41;20.92;;;14.77;;
43756;SDS011;73222;41.866;12.462;2024-01-25T10:01:14;25.08;;;14.77;;
43756;SDS011;73222;41.866;12.462;2024-01-25T10:03:46;23.95;;;14.07;;
43756;SDS011;73222;41.866;12.462;2024-01-25T10:06:13;23.13;;;13.95;;
43756;SDS011;73222;41.866;12.462;2024-01-25T10:08:39;18.80;;;13.20;;
43756;SDS011;73222;41.866;12.462;2024-01-25T10:11:05;24.65;;;13.80;;
43756;SDS011;73222;41.866;12.462;2024-01-25T10:13:33;20.15;;;12.45;;
43756;SDS011;73222;41.866;12.462;2024-01-25T10:16:19;24.30;;;14.80;;
43756;SDS011;73222;41.866;12.462;2024-01-25T10:18:47;26.67;;;15.30;;
43756;SDS011;73222;41.866;12.462;2024-01-25T10:21:14;24.23;;;14.73;;
43756;SDS011;73222;41.866;12.462;2024-01-25T10:23:40;21.70;;;14.10;;
43756;SDS011;73222;41.866;12.462;2024-01-25T10:26:09;24.45;;;13.95;;
43756;SDS011;73222;41.866;12.462;2024-01-25T10:28:34;21.27;;;13.80;;
43756;SDS011;73222;41.866;12.462;2024-01-25T10:31:01;22.23;;;13.40;;
43756;SDS011;73222;41.866;12.462;2024-01-25T10:33:29;19.55;;;14.52;;
43756;SDS011;73222;41.866;12.462;2024-01-25T10:35:55;22.77;;;14.88;;
43756;SDS011;73222;41.866;12.462;2024-01-25T10:38:27;21.30;;;14.13;;
43756;SDS011;73222;41.866;12.462;2024-01-25T10:40:55;24.77;;;14.50;;
43756;SDS011;73222;41.866;12.462;2024-01-25T10:43:22;22.15;;;13.77;;
43756;SDS011;73222;41.866;12.462;2024-01-25T10:45:47;23.00;;;13.10;;
43756;SDS011;73222;41.866;12.462;2024-01-25T10:48:13;25.15;;;13.73;;
43756;SDS011;73222;41.866;12.462;2024-01-25T10:50:39;19.85;;;13.30;;
43756;SDS011;73222;41.866;12.462;2024-01-25T10:53:04;15.38;;;11.93;;
43756;SDS011;73222;41.866;12.462;2024-01-25T10:55:32;23.17;;;13.40;;
43756;SDS011;73222;41.866;12.462;2024-01-25T10:57:58;18.65;;;12.85;;
43756;SDS011;73222;41.866;12.462;2024-01-25T11:00:23;19.05;;;10.60;;
43756;SDS011;73222;41.866;12.462;2024-01-25T11:02:50;18.85;;;11.90;;
43756;SDS011;73222;41.866;12.462;2024-01-25T11:05:16;19.38;;;13.27;;
43756;SDS011;73222;41.866;12.462;2024-01-25T11:07:46;15.93;;;11.52;;
43756;SDS011;73222;41.866;12.462;2024-01-25T11:10:21;16.80;;;12.40;;
43756;SDS011;73222;41.866;12.462;2024-01-25T11:12:55;19.45;;;13.15;;
43756;SDS011;73222;41.866;12.462;2024-01-25T11:15:22;16.88;;;12.38;;
43756;SDS011;73222;41.866;12.462;2024-01-25T11:17:51;19.35;;;11.40;;
43756;SDS011;73222;41.866;12.462;2024-01-25T11:20:22;15.25;;;10.88;;
43756;SDS011;73222;41.866;12.462;2024-01-25T11:22:48;19.98;;;11.77;;
43756;SDS011;73222;41.866;12.462;2024-01-25T11:25:20;15.70;;;11.20;;
43756;SDS011;73222;41.866;12.462;2024-01-25T11:27:47;16.95;;;11.10;;
43756;SDS011;73222;41.866;12.462;2024-01-25T11:30:14;16.73;;;10.98;;
43756;SDS011;73222;41.866;12.462;2024-01-25T11:32:45;19.27;;;11.85;;
43756;SDS011;73222;41.866;12.462;2024-01-25T11:35:12;18.98;;;11.73;;
43756;SDS011;73222;41.866;12.462;2024-01-25T11:37:41;17.02;;;12.45;;
43756;SDS011;73222;41.866;12.462;2024-01-25T11:40:14;19.27;;;11.85;;
43756;SDS011;73222;41.866;12.462;2024-01-25T11:42:44;16.00;;;10.88;;
43756;SDS011;73222;41.866;12.462;2024-01-25T11:45:12;20.42;;;11.65;;
43756;SDS011;73222;41.866;12.462;2024-01-25T11:47:39;13.18;;;10.40;;
43756;SDS011;73222;41.866;12.462;2024-01-25T11:50:06;15.30;;;11.25;;
43756;SDS011;73222;41.866;12.462;2024-01-25T11:52:32;21.58;;;9.63;;
43756;SDS011;73222;41.866;12.462;2024-01-25T11:54:59;17.90;;;8.40;;
43756;SDS011;73222;41.866;12.462;2024-01-25T11:57:34;17.00;;;8.82;;
43756;SDS011;73222;41.866;12.462;2024-01-25T12:00:02;14.82;;;9.18;;
43756;SDS011;73222;41.866;12.462;2024-01-25T12:02:29;16.40;;;8.90;;
43756;SDS011;73222;41.866;12.462;2024-01-25T12:04:56;18.40;;;9.35;;
43756;SDS011;73222;41.866;12.462;2024-01-25T12:07:22;15.30;;;8.25;;
43756;SDS011;73222;41.866;12.462;2024-01-25T12:10:01;15.32;;;8.45;;
43756;SDS011;73222;41.866;12.462;2024-01-25T12:12:28;15.32;;;7.65;;
43756;SDS011;73222;41.866;12.462;2024-01-25T12:14:57;14.27;;;7.30;;
43756;SDS011;73222;41.866;12.462;2024-01-25T12:17:23;14.40;;;5.50;;
43756;SDS011;73222;41.866;12.462;2024-01-25T12:19:49;12.93;;;5.95;;
43756;SDS011;73222;41.866;12.462;2024-01-25T12:22:19;13.90;;;5.97;;
43756;SDS011;73222;41.866;12.462;2024-01-25T12:24:45;11.00;;;5.10;;
43756;SDS011;73222;41.866;12.462;2024-01-25T12:27:11;14.25;;;5.53;;
43756;SDS011;73222;41.866;12.462;2024-01-25T12:29:36;11.88;;;5.28;;
43756;SDS011;73222;41.866;12.462;2024-01-25T12:32:03;14.27;;;5.13;;
43756;SDS011;73222;41.866;12.462;2024-01-25T12:34:28;10.98;;;4.82;;
43756;SDS011;73222;41.866;12.462;2024-01-25T12:36:54;13.27;;;5.10;;
43756;SDS011;73222;41.866;12.462;2024-01-25T12:39:20;13.80;;;4.93;;
43756;SDS011;73222;41.866;12.462;2024-01-25T12:41:46;14.13;;;5.43;;
43756;SDS011;73222;41.866;12.462;2024-01-25T12:44:11;10.73;;;4.53;;
43756;SDS011;73222;41.866;12.462;2024-01-25T12:46:36;10.90;;;4.60;;
43756;SDS011;73222;41.866;12.462;2024-01-25T12:49:02;12.48;;;5.20;;
43756;SDS011;73222;41.866;12.462;2024-01-25T12:51:29;10.50;;;4.47;;
43756;SDS011;73222;41.866;12.462;2024-01-25T12:53:54;13.52;;;5.05;;
43756;SDS011;73222;41.866;12.462;2024-01-25T12:56:20;10.68;;;4.53;;
43756;SDS011;73222;41.866;12.462;2024-01-25T12:58:45;10.18;;;4.72;;
43756;SDS011;73222;41.866;12.462;2024-01-25T13:01:11;12.25;;;4.53;;
43756;SDS011;73222;41.866;12.462;2024-01-25T13:03:36;11.07;;;4.93;;
43756;SDS011;73222;41.866;12.462;2024-01-25T13:06:01;10.77;;;4.88;;
43756;SDS011;73222;41.866;12.462;2024-01-25T13:08:28;11.63;;;4.65;;
43756;SDS011;73222;41.866;12.462;2024-01-25T13:10:54;11.25;;;4.93;;
43756;SDS011;73222;41.866;12.462;2024-01-25T13:13:19;12.73;;;4.57;;
43756;SDS011;73222;41.866;12.462;2024-01-25T13:15:45;13.90;;;5.50;;
43756;SDS011;73222;41.866;12.462;2024-01-25T13:18:11;13.52;;;5.65;;
43756;SDS011;73222;41.866;12.462;2024-01-25T13:20:36;12.73;;;5.10;;
43756;SDS011;73222;41.866;12.462;2024-01-25T13:23:01;10.98;;;5.40;;
43756;SDS011;73222;41.866;12.462;2024-01-25T13:25:27;10.93;;;5.30;;
43756;SDS011;73222;41.866;12.462;2024-01-25T13:27:52;11.85;;;5.40;;
43756;SDS011;73222;41.866;12.462;2024-01-25T13:30:18;13.02;;;5.28;;
43756;SDS011;73222;41.866;12.462;2024-01-25T13:32:43;13.10;;;5.45;;
43756;SDS011;73222;41.866;12.462;2024-01-25T13:35:10;12.98;;;5.00;;
43756;SDS011;73222;41.866;12.462;2024-01-25T13:37:35;14.45;;;5.10;;
43756;SDS011;73222;41.866;12.462;2024-01-25T13:40:01;13.18;;;5.97;;
43756;SDS011;73222;41.866;12.462;2024-01-25T13:42:27;14.43;;;5.70;;
43756;SDS011;73222;41.866;12.462;2024-01-25T13:44:52;13.75;;;5.32;;
43756;SDS011;73222;41.866;12.462;2024-01-25T13:47:17;10.98;;;6.03;;
43756;SDS011;73222;41.866;12.462;2024-01-25T13:49:43;12.10;;;5.25;;
43756;SDS011;73222;41.866;12.462;2024-01-25T13:52:14;10.30;;;4.88;;
43756;SDS011;73222;41.866;12.462;2024-01-25T13:54:47;13.10;;;5.22;;
43756;SDS011;73222;41.866;12.462;2024-01-25T13:57:16;12.63;;;5.28;;
43756;SDS011;73222;41.866;12.462;2024-01-25T13:59:41;15.65;;;6.72;;
43756;SDS011;73222;41.866;12.462;2024-01-25T14:02:07;11.93;;;5.97;;
43756;SDS011;73222;41.866;12.462;2024-01-25T14:04:32;15.48;;;5.50;;